sensor_id;sensor_type;location;lat;lon;timestamp;pressure;altitude;pressure_sealevel;temperature;humidity
28630;BME280;15817;42.130;24.762;2022-11-20T00:01:31;99295.09;;;12.90;100.00
28630;BME280;15817;42.130;24.762;2022-11-20T00:03:58;99282.66;;;12.89;100.00
28630;BME280;15817;42.130;24.762;2022-11-20T00:06:25;99287.00;;;12.93;100.00
28630;BME280;15817;42.130;24.762;2022-11-20T00:08:56;99300.41;;;12.92;100.00
28630;BME280;15817;42.130;24.762;2022-11-20T00:11:23;99291.56;;;12.90;100.00
28630;BME280;15817;42.130;24.762;2022-11-20T00:13:52;99295.09;;;12.90;100.00
28630;BME280;15817;42.130;24.762;2022-11-20T00:16:22;99298.69;;;12.89;100.00
28630;BME280;15817;42.130;24.762;2022-11-20T00:18:49;99293.34;;;12.89;100.00
28630;BME280;15817;42.130;24.762;2022-11-20T00:21:23;99287.09;;;12.90;100.00
28630;BME280;15817;42.130;24.762;2022-11-20T00:23:50;99266.72;;;12.86;100.00
28630;BME280;15817;42.130;24.762;2022-11-20T00:26:18;99281.81;;;12.87;100.00
28630;BME280;15817;42.130;24.762;2022-11-20T00:28:53;99264.13;;;12.83;100.00
28630;BME280;15817;42.130;24.762;2022-11-20T00:31:19;99301.41;;;12.86;100.00
28630;BME280;15817;42.130;24.762;2022-11-20T00:33:45;99296.06;;;12.86;100.00
28630;BME280;15817;42.130;24.762;2022-11-20T00:36:17;99288.09;;;12.85;100.00
28630;BME280;15817;42.130;24.762;2022-11-20T00:38:44;99290.81;;;12.83;100.00
28630;BME280;15817;42.130;24.762;2022-11-20T00:41:19;99284.53;;;12.86;100.00
28630;BME280;15817;42.130;24.762;2022-11-20T00:43:46;99259.69;;;12.82;100.00
28630;BME280;15817;42.130;24.762;2022-11-20T00:46:17;99280.88;;;12.90;100.00
28630;BME280;15817;42.130;24.762;2022-11-20T00:48:43;99287.09;;;12.90;100.00
28630;BME280;15817;42.130;24.762;2022-11-20T00:51:12;99272.06;;;12.86;100.00
28630;BME280;15817;42.130;24.762;2022-11-20T00:53:42;99301.34;;;12.89;100.00
28630;BME280;15817;42.130;24.762;2022-11-20T00:56:14;99296.91;;;12.90;100.00
28630;BME280;15817;42.130;24.762;2022-11-20T00:58:41;99285.38;;;12.88;100.00
28630;BME280;15817;42.130;24.762;2022-11-20T01:01:10;99304.03;;;12.89;100.00
28630;BME280;15817;42.130;24.762;2022-11-20T01:03:42;99285.44;;;12.85;100.00
28630;BME280;15817;42.130;24.762;2022-11-20T01:06:19;99292.53;;;12.86;100.00
28630;BME280;15817;42.130;24.762;2022-11-20T01:08:49;99293.44;;;12.85;100.00
28630;BME280;15817;42.130;24.762;2022-11-20T01:11:17;99283.66;;;12.85;100.00
28630;BME280;15817;42.130;24.762;2022-11-20T01:13:45;99270.38;;;12.82;100.00
28630;BME280;15817;42.130;24.762;2022-11-20T01:18:47;99269.38;;;12.86;100.00
28630;BME280;15817;42.130;24.762;2022-11-20T01:21:36;99267.63;;;12.85;100.00
28630;BME280;15817;42.130;24.762;2022-11-20T01:24:03;99282.81;;;12.83;100.00
28630;BME280;15817;42.130;24.762;2022-11-20T01:26:35;99274.69;;;12.88;100.00
28630;BME280;15817;42.130;24.762;2022-11-20T01:29:02;99259.63;;;12.85;100.00
28630;BME280;15817;42.130;24.762;2022-11-20T01:31:30;99268.50;;;12.86;100.00
28630;BME280;15817;42.130;24.762;2022-11-20T01:33:59;99253.53;;;12.80;100.00
28630;BME280;15817;42.130;24.762;2022-11-20T01:36:27;99251.69;;;12.82;100.00
28630;BME280;15817;42.130;24.762;2022-11-20T01:38:55;99257.03;;;12.82;100.00
28630;BME280;15817;42.130;24.762;2022-11-20T01:41:22;99244.72;;;12.77;100.00
28630;BME280;15817;42.130;24.762;2022-11-20T01:44:07;99248.28;;;12.77;100.00
28630;BME280;15817;42.130;24.762;2022-11-20T01:46:56;99221.63;;;12.76;100.00
28630;BME280;15817;42.130;24.762;2022-11-20T01:49:28;99230.50;;;12.76;100.00
28630;BME280;15817;42.130;24.762;2022-11-20T01:52:04;99219.03;;;12.73;100.00
28630;BME280;15817;42.130;24.762;2022-11-20T01:54:41;99238.50;;;12.76;100.00
28630;BME280;15817;42.130;24.762;2022-11-20T01:57:10;99235.03;;;12.73;100.00
28630;BME280;15817;42.130;24.762;2022-11-20T01:59:40;99232.38;;;12.73;100.00
28630;BME280;15817;42.130;24.762;2022-11-20T02:02:07;99224.31;;;12.74;100.00
28630;BME280;15817;42.130;24.762;2022-11-20T02:04:33;99227.91;;;12.73;100.00
28630;BME280;15817;42.130;24.762;2022-11-20T02:07:02;99226.16;;;12.72;100.00
28630;BME280;15817;42.130;24.762;2022-11-20T02:09:30;99233.28;;;12.72;100.00
28630;BME280;15817;42.130;24.762;2022-11-20T02:11:57;99228.03;;;12.68;100.00
28630;BME280;15817;42.130;24.762;2022-11-20T02:14:24;99220.09;;;12.65;100.00
28630;BME280;15817;42.130;24.762;2022-11-20T02:16:51;99215.72;;;12.63;100.00
28630;BME280;15817;42.130;24.762;2022-11-20T02:19:28;99210.28;;;12.67;100.00
28630;BME280;15817;42.130;24.762;2022-11-20T02:24:29;99221.81;;;12.68;100.00
28630;BME280;15817;42.130;24.762;2022-11-20T02:27:01;99204.09;;;12.65;100.00
28630;BME280;15817;42.130;24.762;2022-11-20T02:29:33;99196.09;;;12.65;100.00
28630;BME280;15817;42.130;24.762;2022-11-20T02:32:01;99211.25;;;12.63;100.00
28630;BME280;15817;42.130;24.762;2022-11-20T02:34:28;99220.09;;;12.65;100.00
28630;BME280;15817;42.130;24.762;2022-11-20T02:36:55;99200.66;;;12.60;100.00
28630;BME280;15817;42.130;24.762;2022-11-20T02:39:24;99182.84;;;12.61;100.00
28630;BME280;15817;42.130;24.762;2022-11-20T02:41:52;99199.72;;;12.63;100.00
28630;BME280;15817;42.130;24.762;2022-11-20T02:44:21;99189.06;;;12.61;100.00
28630;BME280;15817;42.130;24.762;2022-11-20T02:46:47;99183.75;;;12.61;100.00
28630;BME280;15817;42.130;24.762;2022-11-20T02:49:13;99188.09;;;12.65;100.00
28630;BME280;15817;42.130;24.762;2022-11-20T02:51:39;99193.44;;;12.65;100.00
28630;BME280;15817;42.130;24.762;2022-11-20T02:54:05;99190.81;;;12.62;100.00
28630;BME280;15817;42.130;24.762;2022-11-20T02:56:31;99194.47;;;12.58;100.00
28630;BME280;15817;42.130;24.762;2022-11-20T02:58:57;99186.47;;;12.58;100.00
28630;BME280;15817;42.130;24.762;2022-11-20T03:01:22;99204.19;;;12.61;100.00
28630;BME280;15817;42.130;24.762;2022-11-20T03:03:49;99198.13;;;12.56;100.00
28630;BME280;15817;42.130;24.762;2022-11-20T03:06:16;99203.34;;;12.59;100.00
28630;BME280;15817;42.130;24.762;2022-11-20T03:08:42;99177.59;;;12.58;100.00
28630;BME280;15817;42.130;24.762;2022-11-20T03:11:08;99199.78;;;12.60;100.00
28630;BME280;15817;42.130;24.762;2022-11-20T03:13:35;99201.72;;;12.53;100.00
28630;BME280;15817;42.130;24.762;2022-11-20T03:16:15;99193.69;;;12.55;100.00
28630;BME280;15817;42.130;24.762;2022-11-20T03:18:41;99198.88;;;12.61;100.00
28630;BME280;15817;42.130;24.762;2022-11-20T03:21:11;99207.81;;;12.58;100.00
28630;BME280;15817;42.130;24.762;2022-11-20T03:23:37;99189.28;;;12.54;100.00
28630;BME280;15817;42.130;24.762;2022-11-20T03:28:38;99171.41;;;12.57;100.00
28630;BME280;15817;42.130;24.762;2022-11-20T03:31:09;99177.59;;;12.58;100.00
28630;BME280;15817;42.130;24.762;2022-11-20T03:33:36;99178.53;;;12.57;100.00
28630;BME280;15817;42.130;24.762;2022-11-20T03:36:04;99176.66;;;12.60;100.00
28630;BME280;15817;42.130;24.762;2022-11-20T03:38:31;99203.25;;;12.63;100.00
28630;BME280;15817;42.130;24.762;2022-11-20T03:41:01;99159.00;;;12.56;100.00
28630;BME280;15817;42.130;24.762;2022-11-20T03:43:30;99184.66;;;12.60;100.00
28630;BME280;15817;42.130;24.762;2022-11-20T03:45:56;99189.06;;;12.61;100.00
28630;BME280;15817;42.130;24.762;2022-11-20T03:48:24;99192.69;;;12.59;100.00
28630;BME280;15817;42.130;24.762;2022-11-20T03:50:51;99183.88;;;12.57;100.00
28630;BME280;15817;42.130;24.762;2022-11-20T03:53:19;99180.16;;;12.62;100.00
28630;BME280;15817;42.130;24.762;2022-11-20T03:55:50;99190.78;;;12.64;100.00
28630;BME280;15817;42.130;24.762;2022-11-20T03:58:16;99183.81;;;12.58;100.00
28630;BME280;15817;42.130;24.762;2022-11-20T04:00:44;99188.34;;;12.56;100.00
28630;BME280;15817;42.130;24.762;2022-11-20T04:03:09;99192.59;;;12.63;100.00
28630;BME280;15817;42.130;24.762;2022-11-20T04:05:35;99194.38;;;12.63;100.00
28630;BME280;15817;42.130;24.762;2022-11-20T04:08:01;99186.31;;;12.66;100.00
28630;BME280;15817;42.130;24.762;2022-11-20T04:10:27;99179.34;;;12.59;100.00
28630;BME280;15817;42.130;24.762;2022-11-20T04:12:53;99196.06;;;12.67;100.00
28630;BME280;15817;42.130;24.762;2022-11-20T04:15:19;99200.59;;;12.63;100.00
28630;BME280;15817;42.130;24.762;2022-11-20T04:17:44;99205.84;;;12.66;100.00
28630;BME280;15817;42.130;24.762;2022-11-20T04:20:13;99218.34;;;12.64;100.00
28630;BME280;15817;42.130;24.762;2022-11-20T04:22:39;99204.16;;;12.62;100.00
28630;BME280;15817;42.130;24.762;2022-11-20T04:25:06;99195.28;;;12.62;100.00
28630;BME280;15817;42.130;24.762;2022-11-20T04:27:31;99202.44;;;12.60;100.00
28630;BME280;15817;42.130;24.762;2022-11-20T04:29:57;99200.63;;;12.62;100.00
28630;BME280;15817;42.130;24.762;2022-11-20T04:32:26;99189.94;;;12.62;100.00
28630;BME280;15817;42.130;24.762;2022-11-20T04:34:59;99198.91;;;12.59;100.00
28630;BME280;15817;42.130;24.762;2022-11-20T04:37:28;99201.53;;;12.61;100.00
28630;BME280;15817;42.130;24.762;2022-11-20T04:39:54;99203.28;;;12.62;100.00
28630;BME280;15817;42.130;24.762;2022-11-20T04:42:34;99178.47;;;12.58;100.00
28630;BME280;15817;42.130;24.762;2022-11-20T04:45:17;99205.06;;;12.61;100.00
28630;BME280;15817;42.130;24.762;2022-11-20T04:47:45;99196.25;;;12.58;100.00
28630;BME280;15817;42.130;24.762;2022-11-20T04:50:14;99198.91;;;12.59;100.00
28630;BME280;15817;42.130;24.762;2022-11-20T04:52:45;99191.66;;;12.64;100.00
28630;BME280;15817;42.130;24.762;2022-11-20T04:55:23;99187.28;;;12.62;100.00
28630;BME280;15817;42.130;24.762;2022-11-20T04:57:52;99196.03;;;12.68;100.00
28630;BME280;15817;42.130;24.762;2022-11-20T05:00:20;99206.50;;;12.76;100.00
28630;BME280;15817;42.130;24.762;2022-11-20T05:02:59;99205.84;;;12.66;100.00
28630;BME280;15817;42.130;24.762;2022-11-20T05:05:38;99197.88;;;12.65;100.00
28630;BME280;15817;42.130;24.762;2022-11-20T05:08:13;99211.22;;;12.65;100.00
28630;BME280;15817;42.130;24.762;2022-11-20T05:10:39;99211.06;;;12.71;100.00
28630;BME280;15817;42.130;24.762;2022-11-20T05:13:05;99193.41;;;12.67;100.00
28630;BME280;15817;42.130;24.762;2022-11-20T05:15:32;99208.50;;;12.68;100.00
28630;BME280;15817;42.130;24.762;2022-11-20T05:17:57;99195.25;;;12.63;100.00
28630;BME280;15817;42.130;24.762;2022-11-20T05:20:26;99204.09;;;12.65;100.00
28630;BME280;15817;42.130;24.762;2022-11-20T05:22:56;99217.28;;;12.72;100.00
28630;BME280;15817;42.130;24.762;2022-11-20T05:25:22;99218.19;;;12.70;100.00
28630;BME280;15817;42.130;24.762;2022-11-20T05:27:48;99219.06;;;12.71;100.00
28630;BME280;15817;42.130;24.762;2022-11-20T05:30:14;99202.06;;;12.75;100.00
28630;BME280;15817;42.130;24.762;2022-11-20T05:32:40;99196.03;;;12.68;100.00
28630;BME280;15817;42.130;24.762;2022-11-20T05:35:11;99207.47;;;12.72;100.00
28630;BME280;15817;42.130;24.762;2022-11-20T05:37:37;99209.22;;;12.73;100.00
28630;BME280;15817;42.130;24.762;2022-11-20T05:40:03;99193.25;;;12.72;100.00
28630;BME280;15817;42.130;24.762;2022-11-20T05:42:32;99202.28;;;12.67;100.00
28630;BME280;15817;42.130;24.762;2022-11-20T05:44:58;99202.13;;;12.72;100.00
28630;BME280;15817;42.130;24.762;2022-11-20T05:47:26;99196.13;;;12.64;100.00
28630;BME280;15817;42.130;24.762;2022-11-20T05:49:52;99215.59;;;12.69;100.00
28630;BME280;15817;42.130;24.762;2022-11-20T05:52:24;99233.44;;;12.65;100.00
28630;BME280;15817;42.130;24.762;2022-11-20T05:54:49;99220.13;;;12.64;100.00
28630;BME280;15817;42.130;24.762;2022-11-20T05:57:16;99222.00;;;12.60;100.00
28630;BME280;15817;42.130;24.762;2022-11-20T05:59:44;99228.19;;;12.62;100.00
28630;BME280;15817;42.130;24.762;2022-11-20T06:02:10;99221.97;;;12.62;100.00
28630;BME280;15817;42.130;24.762;2022-11-20T06:04:41;99237.09;;;12.61;100.00
28630;BME280;15817;42.130;24.762;2022-11-20T06:07:07;99209.59;;;12.58;100.00
28630;BME280;15817;42.130;24.762;2022-11-20T06:09:33;99217.59;;;12.58;100.00
28630;BME280;15817;42.130;24.762;2022-11-20T06:11:59;99228.28;;;12.58;100.00
28630;BME280;15817;42.130;24.762;2022-11-20T06:14:35;99221.13;;;12.60;100.00
28630;BME280;15817;42.130;24.762;2022-11-20T06:17:04;99189.94;;;12.62;100.00
28630;BME280;15817;42.130;24.762;2022-11-20T06:19:35;99231.69;;;12.64;100.00
28630;BME280;15817;42.130;24.762;2022-11-20T06:22:01;99225.41;;;12.67;100.00
28630;BME280;15817;42.130;24.762;2022-11-20T06:24:36;99220.19;;;12.62;100.00
28630;BME280;15817;42.130;24.762;2022-11-20T06:27:12;99240.50;;;12.68;100.00
28630;BME280;15817;42.130;24.762;2022-11-20T06:30:02;99249.25;;;12.73;100.00
28630;BME280;15817;42.130;24.762;2022-11-20T06:33:02;99240.31;;;12.76;100.00
28630;BME280;15817;42.130;24.762;2022-11-20T06:36:24;99235.72;;;12.81;100.00
28630;BME280;15817;42.130;24.762;2022-11-20T06:38:50;99251.59;;;12.87;100.00
28630;BME280;15817;42.130;24.762;2022-11-20T06:41:26;99236.28;;;12.93;100.00
28630;BME280;15817;42.130;24.762;2022-11-20T06:44:04;99237.94;;;12.99;100.00
28630;BME280;15817;42.130;24.762;2022-11-20T06:46:46;99251.34;;;12.96;100.00
28630;BME280;15817;42.130;24.762;2022-11-20T06:49:24;99250.44;;;12.97;100.00
28630;BME280;15817;42.130;24.762;2022-11-20T06:52:09;99246.84;;;12.98;100.00
28630;BME280;15817;42.130;24.762;2022-11-20T06:54:43;99234.41;;;12.97;100.00
28630;BME280;15817;42.130;24.762;2022-11-20T06:57:09;99239.75;;;12.97;100.00
28630;BME280;15817;42.130;24.762;2022-11-20T06:59:47;99244.06;;;13.02;100.00
28630;BME280;15817;42.130;24.762;2022-11-20T07:02:33;99250.38;;;13.00;100.00
28630;BME280;15817;42.130;24.762;2022-11-20T07:05:01;99259.97;;;13.07;100.00
28630;BME280;15817;42.130;24.762;2022-11-20T07:08:15;99252.69;;;13.14;100.00
28630;BME280;15817;42.130;24.762;2022-11-20T07:10:48;99251.94;;;13.07;100.00
28630;BME280;15817;42.130;24.762;2022-11-20T07:13:17;99255.38;;;13.12;100.00
28630;BME280;15817;42.130;24.762;2022-11-20T07:16:16;99262.47;;;13.13;100.00
28630;BME280;15817;42.130;24.762;2022-11-20T07:18:43;99255.47;;;13.09;100.00
28630;BME280;15817;42.130;24.762;2022-11-20T07:21:10;99239.44;;;13.09;100.00
28630;BME280;15817;42.130;24.762;2022-11-20T07:23:51;99229.69;;;13.08;100.00
28630;BME280;15817;42.130;24.762;2022-11-20T07:26:28;99265.19;;;13.12;100.00
28630;BME280;15817;42.130;24.762;2022-11-20T07:29:07;99260.63;;;13.17;100.00
28630;BME280;15817;42.130;24.762;2022-11-20T07:31:39;99260.59;;;13.18;100.00
28630;BME280;15817;42.130;24.762;2022-11-20T07:34:39;99279.22;;;13.21;100.00
28630;BME280;15817;42.130;24.762;2022-11-20T07:37:15;99279.13;;;13.24;100.00
28630;BME280;15817;42.130;24.762;2022-11-20T07:39:41;99275.72;;;13.18;100.00
28630;BME280;15817;42.130;24.762;2022-11-20T07:42:07;99291.69;;;13.21;100.00
28630;BME280;15817;42.130;24.762;2022-11-20T07:44:41;99280.19;;;13.17;100.00
28630;BME280;15817;42.130;24.762;2022-11-20T07:47:07;99280.94;;;13.24;100.00
28630;BME280;15817;42.130;24.762;2022-11-20T07:49:35;99279.97;;;13.26;100.00
28630;BME280;15817;42.130;24.762;2022-11-20T07:52:03;99268.53;;;13.21;100.00
28630;BME280;15817;42.130;24.762;2022-11-20T07:54:39;99277.34;;;13.25;100.00
28630;BME280;15817;42.130;24.762;2022-11-20T07:57:06;99284.44;;;13.26;100.00
28630;BME280;15817;42.130;24.762;2022-11-20T07:59:32;99269.38;;;13.23;100.00
28630;BME280;15817;42.130;24.762;2022-11-20T08:02:09;99261.41;;;13.22;100.00
28630;BME280;15817;42.130;24.762;2022-11-20T08:04:42;99270.28;;;13.22;100.00
28630;BME280;15817;42.130;24.762;2022-11-20T08:07:08;99269.22;;;13.28;100.00
28630;BME280;15817;42.130;24.762;2022-11-20T08:09:37;99273.50;;;13.35;100.00
28630;BME280;15817;42.130;24.762;2022-11-20T08:12:45;99280.50;;;13.39;100.00
28630;BME280;15817;42.130;24.762;2022-11-20T08:15:34;99264.53;;;13.37;100.00
28630;BME280;15817;42.130;24.762;2022-11-20T08:21:52;99268.88;;;13.41;100.00
28630;BME280;15817;42.130;24.762;2022-11-20T08:24:24;99247.50;;;13.41;100.00
28630;BME280;15817;42.130;24.762;2022-11-20T08:26:57;99272.25;;;13.48;100.00
28630;BME280;15817;42.130;24.762;2022-11-20T08:29:26;99267.47;;;13.61;100.00
28630;BME280;15817;42.130;24.762;2022-11-20T08:31:55;99278.66;;;13.73;100.00
28630;BME280;15817;42.130;24.762;2022-11-20T08:34:24;99272.09;;;13.85;100.00
28630;BME280;15817;42.130;24.762;2022-11-20T08:36:53;99263.81;;;13.94;100.00
28630;BME280;15817;42.130;24.762;2022-11-20T08:39:22;99241.59;;;13.92;100.00
28630;BME280;15817;42.130;24.762;2022-11-20T08:41:59;99232.28;;;14.05;100.00
28630;BME280;15817;42.130;24.762;2022-11-20T08:44:58;99254.09;;;14.21;100.00
28630;BME280;15817;42.130;24.762;2022-11-20T08:47:30;99253.63;;;14.36;100.00
28630;BME280;15817;42.130;24.762;2022-11-20T08:49:59;99247.91;;;14.48;100.00
28630;BME280;15817;42.130;24.762;2022-11-20T08:52:48;99240.38;;;14.61;100.00
28630;BME280;15817;42.130;24.762;2022-11-20T09:06:24;99228.59;;;15.19;100.00
28630;BME280;15817;42.130;24.762;2022-11-20T09:09:02;99233.38;;;15.35;100.00
28630;BME280;15817;42.130;24.762;2022-11-20T09:11:52;99235.47;;;15.51;100.00
28630;BME280;15817;42.130;24.762;2022-11-20T09:14:34;99242.22;;;15.63;100.00
28630;BME280;15817;42.130;24.762;2022-11-20T09:17:00;99222.97;;;15.77;100.00
28630;BME280;15817;42.130;24.762;2022-11-20T09:23:22;99217.13;;;15.66;100.00
28630;BME280;15817;42.130;24.762;2022-11-20T09:29:17;99204.66;;;15.65;100.00
28630;BME280;15817;42.130;24.762;2022-11-20T09:32:12;99204.00;;;15.81;100.00
28630;BME280;15817;42.130;24.762;2022-11-20T09:34:41;99205.34;;;15.93;100.00
28630;BME280;15817;42.130;24.762;2022-11-20T09:37:10;99190.22;;;15.92;100.00
28630;BME280;15817;42.130;24.762;2022-11-20T09:39:42;99195.91;;;16.06;100.00
28630;BME280;15817;42.130;24.762;2022-11-20T09:42:34;99183.97;;;16.15;100.00
28630;BME280;15817;42.130;24.762;2022-11-20T09:45:25;99179.69;;;16.09;100.00
28630;BME280;15817;42.130;24.762;2022-11-20T09:48:20;99165.47;;;16.07;100.00
28630;BME280;15817;42.130;24.762;2022-11-20T09:53:51;99148.69;;;16.24;100.00
28630;BME280;15817;42.130;24.762;2022-11-20T09:56:23;99160.31;;;16.46;100.00
28630;BME280;15817;42.130;24.762;2022-11-20T09:58:53;99152.38;;;16.65;100.00
28630;BME280;15817;42.130;24.762;2022-11-20T10:01:23;99152.38;;;16.65;100.00
28630;BME280;15817;42.130;24.762;2022-11-20T10:04:02;99155.81;;;16.69;100.00
28630;BME280;15817;42.130;24.762;2022-11-20T10:06:41;99171.88;;;16.70;100.00
28630;BME280;15817;42.130;24.762;2022-11-20T10:09:37;99163.25;;;16.84;100.00
28630;BME280;15817;42.130;24.762;2022-11-20T10:12:23;99158.16;;;16.76;100.00
28630;BME280;15817;42.130;24.762;2022-11-20T10:37:15;99122.41;;;16.54;100.00
28630;BME280;15817;42.130;24.762;2022-11-20T10:51:40;99105.53;;;16.50;100.00
28630;BME280;15817;42.130;24.762;2022-11-20T11:01:26;99105.25;;;16.36;100.00
28630;BME280;15817;42.130;24.762;2022-11-20T11:12:10;99091.28;;;16.28;100.00
28630;BME280;15817;42.130;24.762;2022-11-20T11:22:00;99064.69;;;16.22;100.00
28630;BME280;15817;42.130;24.762;2022-11-20T11:25:55;99062.03;;;16.22;100.00
28630;BME280;15817;42.130;24.762;2022-11-20T11:28:54;99057.72;;;16.18;100.00
28630;BME280;15817;42.130;24.762;2022-11-20T11:34:35;99062.31;;;16.36;100.00
28630;BME280;15817;42.130;24.762;2022-11-20T11:47:43;99079.47;;;16.32;100.00
28630;BME280;15817;42.130;24.762;2022-11-20T11:50:24;99073.56;;;16.24;100.00
28630;BME280;15817;42.130;24.762;2022-11-20T11:53:12;99085.78;;;16.31;100.00
28630;BME280;15817;42.130;24.762;2022-11-20T11:58:33;99087.66;;;16.29;100.00
28630;BME280;15817;42.130;24.762;2022-11-20T12:01:36;99082.16;;;16.32;100.00
28630;BME280;15817;42.130;24.762;2022-11-20T12:04:45;99073.34;;;16.28;100.00
28630;BME280;15817;42.130;24.762;2022-11-20T12:07:36;99057.53;;;16.22;100.00
28630;BME280;15817;42.130;24.762;2022-11-20T12:10:09;99068.16;;;16.25;100.00
28630;BME280;15817;42.130;24.762;2022-11-20T12:12:51;99061.75;;;16.28;100.00
28630;BME280;15817;42.130;24.762;2022-11-20T12:15:31;99062.44;;;16.33;100.00
28630;BME280;15817;42.130;24.762;2022-11-20T12:18:00;99057.13;;;16.32;100.00
28630;BME280;15817;42.130;24.762;2022-11-20T12:20:31;99046.41;;;16.32;100.00
28630;BME280;15817;42.130;24.762;2022-11-20T12:23:16;99043.59;;;16.35;100.00
28630;BME280;15817;42.130;24.762;2022-11-20T12:25:51;99034.91;;;16.28;100.00
28630;BME280;15817;42.130;24.762;2022-11-20T12:33:54;99047.97;;;16.37;100.00
28630;BME280;15817;42.130;24.762;2022-11-20T12:39:21;99037.53;;;16.29;100.00
28630;BME280;15817;42.130;24.762;2022-11-20T12:59:38;99041.31;;;16.46;100.00
28630;BME280;15817;42.130;24.762;2022-11-20T13:07:51;99025.63;;;16.37;100.00
28630;BME280;15817;42.130;24.762;2022-11-20T13:10:35;99037.06;;;16.40;100.00
28630;BME280;15817;42.130;24.762;2022-11-20T13:16:08;99050.78;;;16.54;100.00
28630;BME280;15817;42.130;24.762;2022-11-20T13:18:43;99050.84;;;16.53;100.00
28630;BME280;15817;42.130;24.762;2022-11-20T13:21:44;99053.75;;;16.48;100.00
28630;BME280;15817;42.130;24.762;2022-11-20T13:26:48;99058.31;;;16.46;100.00
28630;BME280;15817;42.130;24.762;2022-11-20T13:29:24;99067.47;;;16.41;100.00
28630;BME280;15817;42.130;24.762;2022-11-20T13:32:01;99064.06;;;16.37;100.00
28630;BME280;15817;42.130;24.762;2022-11-20T13:34:28;99064.19;;;16.34;100.00
28630;BME280;15817;42.130;24.762;2022-11-20T13:37:00;99083.78;;;16.36;100.00
28630;BME280;15817;42.130;24.762;2022-11-20T13:39:35;99076.69;;;16.35;100.00
28630;BME280;15817;42.130;24.762;2022-11-20T13:44:46;99077.56;;;16.36;100.00
28630;BME280;15817;42.130;24.762;2022-11-20T13:47:33;99080.84;;;16.42;100.00
28630;BME280;15817;42.130;24.762;2022-11-20T13:50:08;99088.00;;;16.63;98.64
28630;BME280;15817;42.130;24.762;2022-11-20T13:55:56;99098.59;;;17.27;90.99
28630;BME280;15817;42.130;24.762;2022-11-20T14:01:50;99105.19;;;17.59;87.26
28630;BME280;15817;42.130;24.762;2022-11-20T14:04:27;99124.78;;;17.82;87.08
28630;BME280;15817;42.130;24.762;2022-11-20T14:06:58;99128.78;;;17.73;92.31
28630;BME280;15817;42.130;24.762;2022-11-20T14:09:29;99119.69;;;17.55;92.94
28630;BME280;15817;42.130;24.762;2022-11-20T14:12:15;99132.84;;;17.43;94.09
28630;BME280;15817;42.130;24.762;2022-11-20T14:14:51;99126.13;;;17.32;94.26
28630;BME280;15817;42.130;24.762;2022-11-20T14:17:40;99118.84;;;17.16;93.45
28630;BME280;15817;42.130;24.762;2022-11-20T14:20:12;99123.75;;;17.06;93.57
28630;BME280;15817;42.130;24.762;2022-11-20T14:22:48;99127.44;;;17.04;92.76
28630;BME280;15817;42.130;24.762;2022-11-20T14:25:18;99125.00;;;16.97;93.16
28630;BME280;15817;42.130;24.762;2022-11-20T14:27:55;99109.38;;;16.87;93.39
28630;BME280;15817;42.130;24.762;2022-11-20T14:30:29;99106.16;;;16.79;94.26
28630;BME280;15817;42.130;24.762;2022-11-20T14:33:03;99117.22;;;16.71;94.72
28630;BME280;15817;42.130;24.762;2022-11-20T14:35:33;99120.91;;;16.69;95.49
28630;BME280;15817;42.130;24.762;2022-11-20T14:38:01;99107.66;;;16.64;96.49
28630;BME280;15817;42.130;24.762;2022-11-20T14:40:47;99094.56;;;16.56;96.40
28630;BME280;15817;42.130;24.762;2022-11-20T14:43:27;99098.19;;;16.55;97.34
28630;BME280;15817;42.130;24.762;2022-11-20T14:46:14;99093.84;;;16.51;97.01
28630;BME280;15817;42.130;24.762;2022-11-20T14:48:45;99088.50;;;16.51;98.14
28630;BME280;15817;42.130;24.762;2022-11-20T14:51:22;99087.84;;;16.46;99.21
28630;BME280;15817;42.130;24.762;2022-11-20T14:53:54;99070.31;;;16.38;98.78
28630;BME280;15817;42.130;24.762;2022-11-20T14:56:32;99083.78;;;16.36;98.71
28630;BME280;15817;42.130;24.762;2022-11-20T14:58:58;99066.88;;;16.34;100.00
28630;BME280;15817;42.130;24.762;2022-11-20T15:01:31;99067.22;;;16.26;100.00
28630;BME280;15817;42.130;24.762;2022-11-20T15:04:08;99072.75;;;16.22;100.00
28630;BME280;15817;42.130;24.762;2022-11-20T15:06:36;99078.19;;;16.20;100.00
28630;BME280;15817;42.130;24.762;2022-11-20T15:09:16;99067.78;;;16.13;100.00
28630;BME280;15817;42.130;24.762;2022-11-20T15:11:55;99083.22;;;16.06;100.00
28630;BME280;15817;42.130;24.762;2022-11-20T15:14:29;99098.50;;;16.04;100.00
28630;BME280;15817;42.130;24.762;2022-11-20T15:17:04;99096.03;;;16.00;100.00
28630;BME280;15817;42.130;24.762;2022-11-20T15:19:35;99080.00;;;15.98;100.00
28630;BME280;15817;42.130;24.762;2022-11-20T15:22:11;99085.69;;;15.90;100.00
28630;BME280;15817;42.130;24.762;2022-11-20T15:24:58;99096.03;;;16.00;100.00
28630;BME280;15817;42.130;24.762;2022-11-20T15:27:34;99098.94;;;15.93;100.00
28630;BME280;15817;42.130;24.762;2022-11-20T15:30:11;99092.09;;;15.86;100.00
28630;BME280;15817;42.130;24.762;2022-11-20T15:32:47;99107.19;;;15.89;100.00
28630;BME280;15817;42.130;24.762;2022-11-20T15:35:19;99103.84;;;15.82;100.00
28630;BME280;15817;42.130;24.762;2022-11-20T15:38:13;99119.00;;;15.83;100.00
28630;BME280;15817;42.130;24.762;2022-11-20T15:40:44;99102.38;;;15.75;100.00
28630;BME280;15817;42.130;24.762;2022-11-20T15:43:21;99103.28;;;15.74;100.00
28630;BME280;15817;42.130;24.762;2022-11-20T15:45:54;99109.59;;;15.73;100.00